Time;durP1;ratioP1;P1;durP2;ratioP2;P2;SDS_P1;SDS_P2;PMS_P1;PMS_P2;Temp;Humidity;BMP_temperature;BMP_pressure;BME280_temperature;BME280_humidity;BME280_pressure;Samples;Min_cycle;Max_cycle;Signal;HPM_P1;HPM_P2
2022/12/15 00:41:01;;;;;;;4.35;0.82;;;;;;;;;;4995008;28;20109;-75
2022/12/15 00:43:28;;;;;;;2.72;0.60;;;;;;;;;;4995058;28;20471;-76
2022/12/15 00:48:39;;;;;;;1.55;0.45;;;;;;;;;;4995347;28;20037;-75
2022/12/15 00:51:05;;;;;;;2.65;0.80;;;;;;;;;;4994423;28;20026;-76
2022/12/15 01:21:03;;;;;;;2.33;0.60;;;;;;;;;;4994440;28;20492;-75
2022/12/15 01:23:30;;;;;;;3.40;0.40;;;;;;;;;;4994762;28;20014;-75
2022/12/15 01:25:56;;;;;;;1.55;0.68;;;;;;;;;;4994364;28;20105;-75
2022/12/15 01:28:22;;;;;;;2.38;0.40;;;;;;;;;;4994433;28;20161;-76
2022/12/15 01:30:49;;;;;;;2.40;0.40;;;;;;;;;;4994310;28;20027;-76
2022/12/15 01:33:15;;;;;;;0.60;0.22;;;;;;;;;;4994286;28;20105;-76
2022/12/15 01:35:41;;;;;;;5.22;0.70;;;;;;;;;;4994190;28;20117;-76
2022/12/15 01:38:09;;;;;;;0.70;0.40;;;;;;;;;;4994317;28;20077;-76
2022/12/15 01:40:44;;;;;;;1.08;0.30;;;;;;;;;;5013840;28;20029;-76
2022/12/15 01:43:11;;;;;;;2.92;0.70;;;;;;;;;;5013844;28;20026;-76
2022/12/15 01:46:00;;;;;;;0.85;0.35;;;;;;;;;;5014080;28;20026;-76
2022/12/15 01:48:47;;;;;;;1.60;0.35;;;;;;;;;;5006028;28;20441;-76
2022/12/15 01:51:19;;;;;;;3.63;0.57;;;;;;;;;;5013622;28;20363;-76
2022/12/15 01:53:50;;;;;;;2.67;0.30;;;;;;;;;;5013679;28;20030;-76
2022/12/15 01:56:17;;;;;;;3.03;0.60;;;;;;;;;;5013411;28;20073;-76
2022/12/15 01:58:44;;;;;;;6.22;0.50;;;;;;;;;;5013663;28;20030;-76
2022/12/15 02:01:10;;;;;;;1.55;0.43;;;;;;;;;;5013567;28;20032;-76
2022/12/15 02:03:38;;;;;;;4.38;0.60;;;;;;;;;;5016932;28;20049;-76
2022/12/15 02:06:04;;;;;;;0.75;0.40;;;;;;;;;;5017517;28;20515;-75
2022/12/15 02:08:30;;;;;;;5.75;0.90;;;;;;;;;;5017634;28;20216;-76
2022/12/15 02:11:05;;;;;;;1.00;0.40;;;;;;;;;;5017342;28;20097;-75
2022/12/15 02:13:53;;;;;;;1.10;0.30;;;;;;;;;;5017562;28;20485;-76
2022/12/15 02:16:25;;;;;;;3.22;0.47;;;;;;;;;;5017264;28;20034;-76
2022/12/15 02:18:59;;;;;;;4.28;0.52;;;;;;;;;;5017493;28;20026;-76
2022/12/15 02:21:30;;;;;;;2.03;0.50;;;;;;;;;;5017268;28;20029;-76
2022/12/15 02:23:56;;;;;;;5.03;0.77;;;;;;;;;;5017298;28;20034;-76
2022/12/15 02:26:25;;;;;;;1.95;0.55;;;;;;;;;;5017273;28;20025;-76
2022/12/15 02:29:12;;;;;;;3.40;0.73;;;;;;;;;;5017180;28;20033;-76
2022/12/15 02:31:50;;;;;;;3.05;0.60;;;;;;;;;;4986700;28;20038;-76
2022/12/15 02:34:16;;;;;;;1.85;0.60;;;;;;;;;;5017085;28;20033;-75
2022/12/15 02:36:48;;;;;;;5.28;0.50;;;;;;;;;;5016956;28;20026;-76
2022/12/15 02:39:15;;;;;;;2.50;0.40;;;;;;;;;;5016971;28;20034;-76
2022/12/15 02:41:43;;;;;;;3.88;0.50;;;;;;;;;;5016764;28;20021;-76
2022/12/15 02:44:10;;;;;;;4.72;0.90;;;;;;;;;;5016963;28;20026;-75
2022/12/15 02:46:48;;;;;;;3.05;0.45;;;;;;;;;;5016996;28;20030;-76
2022/12/15 02:49:31;;;;;;;7.82;0.73;;;;;;;;;;4977584;28;20066;-75
2022/12/15 02:52:09;;;;;;;1.58;0.30;;;;;;;;;;4977655;28;20343;-75
2022/12/15 02:54:45;;;;;;;2.08;0.50;;;;;;;;;;4977676;28;20035;-76
2022/12/15 02:57:19;;;;;;;4.82;0.65;;;;;;;;;;4977268;28;20065;-76
2022/12/15 02:59:54;;;;;;;2.50;0.60;;;;;;;;;;5009638;28;20038;-75
2022/12/15 03:02:21;;;;;;;1.58;0.50;;;;;;;;;;4977790;28;20110;-76
2022/12/15 03:04:47;;;;;;;0.82;0.40;;;;;;;;;;4977383;28;20120;-76
2022/12/15 03:07:13;;;;;;;4.78;0.75;;;;;;;;;;4977257;28;20030;-76
2022/12/15 03:09:39;;;;;;;2.45;0.30;;;;;;;;;;4977339;28;20026;-75
2022/12/15 03:12:06;;;;;;;2.38;0.57;;;;;;;;;;4977377;28;20026;-76
2022/12/15 03:14:32;;;;;;;3.95;0.60;;;;;;;;;;4976644;28;20030;-76
2022/12/15 03:16:58;;;;;;;4.80;0.50;;;;;;;;;;4977083;28;20031;-76
2022/12/15 03:19:24;;;;;;;1.05;0.28;;;;;;;;;;4977060;28;20061;-76
2022/12/15 03:21:51;;;;;;;3.92;0.60;;;;;;;;;;4977374;28;20058;-76
2022/12/15 03:24:17;;;;;;;3.53;0.63;;;;;;;;;;4977074;28;20450;-75
2022/12/15 03:26:43;;;;;;;5.00;0.50;;;;;;;;;;4976984;28;20458;-75
2022/12/15 03:29:09;;;;;;;2.78;0.50;;;;;;;;;;4977276;28;20019;-76
2022/12/15 03:31:35;;;;;;;1.42;0.50;;;;;;;;;;4977082;28;20031;-75
2022/12/15 03:34:01;;;;;;;2.80;0.40;;;;;;;;;;4976838;28;20031;-76
2022/12/15 03:36:27;;;;;;;4.15;0.63;;;;;;;;;;4976767;28;20038;-75
2022/12/15 03:38:53;;;;;;;3.47;0.55;;;;;;;;;;4976676;28;20085;-76
2022/12/15 03:41:19;;;;;;;4.65;0.80;;;;;;;;;;4976728;28;20027;-76
2022/12/15 03:43:45;;;;;;;5.30;0.63;;;;;;;;;;4976613;28;20174;-76
2022/12/15 03:46:11;;;;;;;5.45;0.73;;;;;;;;;;4976940;28;20433;-75
2022/12/15 03:48:37;;;;;;;2.72;0.50;;;;;;;;;;4976594;28;20022;-76
2022/12/15 03:51:03;;;;;;;2.65;0.50;;;;;;;;;;4976541;28;20466;-76
2022/12/15 03:53:29;;;;;;;4.00;0.70;;;;;;;;;;4997945;28;20041;-75
2022/12/15 03:55:55;;;;;;;2.60;0.60;;;;;;;;;;5015290;28;20030;-76
2022/12/15 03:58:21;;;;;;;4.55;0.47;;;;;;;;;;5015472;28;20025;-75
2022/12/15 04:00:47;;;;;;;3.80;1.15;;;;;;;;;;5015762;28;20053;-75
2022/12/15 04:03:13;;;;;;;5.00;0.55;;;;;;;;;;5015213;28;20057;-76
2022/12/15 04:05:39;;;;;;;3.97;0.93;;;;;;;;;;5015527;28;20489;-76
2022/12/15 04:08:05;;;;;;;2.88;1.05;;;;;;;;;;5015246;28;20044;-76
2022/12/15 04:10:32;;;;;;;18.85;2.45;;;;;;;;;;5015170;28;20076;-76
2022/12/15 04:13:16;;;;;;;36.28;5.85;;;;;;;;;;5015373;28;20022;-75
2022/12/15 04:15:42;;;;;;;166.25;15.77;;;;;;;;;;5015121;28;20030;-76
2022/12/15 04:18:09;;;;;;;4.57;1.67;;;;;;;;;;5015143;28;20072;-76
2022/12/15 04:20:36;;;;;;;10.45;3.10;;;;;;;;;;5014937;28;20116;-76
2022/12/15 04:23:02;;;;;;;9.07;3.15;;;;;;;;;;5015115;28;20018;-75
2022/12/15 05:31:57;;;;;;;4.97;1.65;;;;;;;;;;4994425;28;20038;-76
2022/12/15 05:34:30;;;;;;;3.13;1.20;;;;;;;;;;4994558;28;20040;-76
2022/12/15 05:36:57;;;;;;;6.43;1.55;;;;;;;;;;4994051;28;20042;-76
2022/12/15 05:39:23;;;;;;;4.43;1.30;;;;;;;;;;4994127;28;20030;-76
2022/12/15 05:41:50;;;;;;;6.88;1.85;;;;;;;;;;4994101;28;20027;-76
2022/12/15 05:44:16;;;;;;;5.60;1.63;;;;;;;;;;4994153;28;20023;-76
2022/12/15 05:46:42;;;;;;;16.60;1.77;;;;;;;;;;4994470;28;20037;-76
2022/12/15 05:49:09;;;;;;;8.98;1.13;;;;;;;;;;4994255;28;20034;-76
2022/12/15 05:51:37;;;;;;;7.43;1.05;;;;;;;;;;4994087;28;20031;-76
2022/12/15 05:54:04;;;;;;;6.10;0.60;;;;;;;;;;4994152;28;20022;-76
2022/12/15 05:56:30;;;;;;;2.88;0.40;;;;;;;;;;4993593;28;20058;-76
2022/12/15 05:58:56;;;;;;;4.32;0.85;;;;;;;;;;4994230;28;20034;-75
2022/12/15 06:01:24;;;;;;;4.97;0.65;;;;;;;;;;4993970;28;20101;-76
2022/12/15 06:03:50;;;;;;;10.30;1.98;;;;;;;;;;4994060;28;20470;-76
2022/12/15 06:06:16;;;;;;;5.68;1.50;;;;;;;;;;4993936;28;20141;-76
2022/12/15 06:08:42;;;;;;;8.35;1.25;;;;;;;;;;4991099;28;20022;-76
2022/12/15 06:11:12;;;;;;;9.93;1.25;;;;;;;;;;4992700;28;20022;-76
2022/12/15 06:13:38;;;;;;;4.88;0.90;;;;;;;;;;4992597;28;20026;-76
2022/12/15 06:16:10;;;;;;;4.07;1.00;;;;;;;;;;4993381;28;20041;-76
2022/12/15 06:18:38;;;;;;;11.30;1.38;;;;;;;;;;4993566;28;20037;-76
2022/12/15 06:21:06;;;;;;;6.53;1.40;;;;;;;;;;4993562;28;20466;-76
2022/12/15 06:23:32;;;;;;;12.40;3.90;;;;;;;;;;4993803;28;20027;-76
2022/12/15 06:25:59;;;;;;;6.57;1.52;;;;;;;;;;4993655;28;20034;-76
2022/12/15 06:28:25;;;;;;;7.40;1.33;;;;;;;;;;4993484;28;20046;-76
2022/12/15 06:30:52;;;;;;;12.85;1.35;;;;;;;;;;4990537;28;20027;-76
2022/12/15 06:33:19;;;;;;;5.47;1.05;;;;;;;;;;4973448;28;20470;-76
2022/12/15 06:35:45;;;;;;;6.75;2.22;;;;;;;;;;4976259;28;20097;-76
2022/12/15 06:38:11;;;;;;;8.32;2.20;;;;;;;;;;4993488;28;20054;-76
2022/12/15 06:40:37;;;;;;;6.10;2.13;;;;;;;;;;4993703;28;20489;-76
2022/12/15 06:43:03;;;;;;;8.85;3.00;;;;;;;;;;4993378;28;20034;-76
2022/12/15 06:45:29;;;;;;;9.30;3.40;;;;;;;;;;4989159;28;20019;-75
2022/12/15 06:47:55;;;;;;;4.38;1.77;;;;;;;;;;4974585;28;20038;-75
2022/12/15 06:50:21;;;;;;;6.43;1.88;;;;;;;;;;4977988;28;20023;-76
2022/12/15 06:52:47;;;;;;;3.20;1.42;;;;;;;;;;4977551;28;20031;-76
2022/12/15 06:55:13;;;;;;;5.20;2.10;;;;;;;;;;4977377;28;20106;-76
2022/12/15 06:57:39;;;;;;;4.22;1.73;;;;;;;;;;4976260;28;20507;-76
2022/12/15 07:00:06;;;;;;;6.18;2.35;;;;;;;;;;4977558;28;20055;-76
2022/12/15 07:02:32;;;;;;;7.85;2.50;;;;;;;;;;4976009;28;20150;-76
2022/12/15 07:04:58;;;;;;;7.85;2.70;;;;;;;;;;4976753;28;20033;-76
2022/12/15 07:07:24;;;;;;;7.90;2.70;;;;;;;;;;4976886;28;20039;-76
2022/12/15 07:09:50;;;;;;;5.75;2.40;;;;;;;;;;4977219;28;20034;-76
2022/12/15 07:12:16;;;;;;;3.90;1.65;;;;;;;;;;4977074;28;20382;-76
2022/12/15 07:14:42;;;;;;;5.03;1.50;;;;;;;;;;4977462;28;20057;-76
2022/12/15 07:17:12;;;;;;;6.95;1.20;;;;;;;;;;4977072;28;20089;-76
2022/12/15 07:19:38;;;;;;;6.80;1.50;;;;;;;;;;4977430;28;20027;-76
2022/12/15 07:22:04;;;;;;;4.50;1.00;;;;;;;;;;4992982;28;20034;-76
2022/12/15 07:24:30;;;;;;;8.20;1.00;;;;;;;;;;4992104;28;20078;-76
2022/12/15 07:26:56;;;;;;;5.70;0.82;;;;;;;;;;4976248;28;20038;-76
2022/12/15 07:29:22;;;;;;;3.25;0.98;;;;;;;;;;4976084;28;20027;-77
2022/12/15 07:31:48;;;;;;;4.28;0.90;;;;;;;;;;4976340;28;20510;-76
2022/12/15 07:34:14;;;;;;;6.35;1.00;;;;;;;;;;4976797;28;20023;-77
2022/12/15 07:36:40;;;;;;;8.15;1.85;;;;;;;;;;4976787;28;20154;-76
2022/12/15 07:39:06;;;;;;;6.10;1.55;;;;;;;;;;4976616;28;20038;-76
2022/12/15 07:41:32;;;;;;;5.68;1.40;;;;;;;;;;4992482;28;20087;-76
2022/12/15 07:43:58;;;;;;;5.95;1.80;;;;;;;;;;4996170;28;20026;-76
2022/12/15 07:46:25;;;;;;;6.45;1.90;;;;;;;;;;4996244;28;20034;-76
2022/12/15 07:48:52;;;;;;;5.50;1.50;;;;;;;;;;4996230;28;20035;-76
2022/12/15 07:51:19;;;;;;;12.07;2.20;;;;;;;;;;4978465;28;20422;-76
2022/12/15 07:53:45;;;;;;;6.60;1.85;;;;;;;;;;4996000;28;20069;-76
2022/12/15 07:56:11;;;;;;;2.75;1.77;;;;;;;;;;4995835;28;20038;-76
2022/12/15 07:58:37;;;;;;;9.43;2.58;;;;;;;;;;4994903;28;20037;-76
2022/12/15 08:01:05;;;;;;;12.10;3.35;;;;;;;;;;4995314;28;20425;-76
2022/12/15 08:03:31;;;;;;;10.23;2.95;;;;;;;;;;4994582;28;20068;-76
2022/12/15 08:05:57;;;;;;;5.22;2.60;;;;;;;;;;4994001;28;20030;-76
2022/12/15 08:08:23;;;;;;;6.25;2.17;;;;;;;;;;4994355;28;20408;-76
2022/12/15 08:10:49;;;;;;;9.40;2.53;;;;;;;;;;4994524;28;20110;-75
2022/12/15 08:13:15;;;;;;;7.78;1.83;;;;;;;;;;4994916;28;20416;-76
2022/12/15 08:15:42;;;;;;;8.23;1.73;;;;;;;;;;4995440;28;20026;-76
2022/12/15 08:18:08;;;;;;;6.60;1.65;;;;;;;;;;4995510;28;20030;-76
2022/12/15 08:20:34;;;;;;;3.55;0.82;;;;;;;;;;4995852;28;20033;-77
2022/12/15 08:23:00;;;;;;;3.63;0.90;;;;;;;;;;4995384;28;20023;-76
2022/12/15 08:25:29;;;;;;;13.18;1.52;;;;;;;;;;4995486;28;20378;-76
2022/12/15 08:27:56;;;;;;;7.53;1.20;;;;;;;;;;4995369;28;20069;-76
2022/12/15 08:30:22;;;;;;;5.95;1.15;;;;;;;;;;4995311;28;20365;-76
2022/12/15 08:32:48;;;;;;;11.57;1.52;;;;;;;;;;4995132;28;20026;-76
2022/12/15 08:35:14;;;;;;;5.78;1.05;;;;;;;;;;4995278;28;20037;-76
2022/12/15 08:37:41;;;;;;;7.20;0.88;;;;;;;;;;4995177;28;20034;-76
2022/12/15 08:40:08;;;;;;;5.00;1.50;;;;;;;;;;4995048;28;20026;-76
2022/12/15 08:42:34;;;;;;;9.50;2.33;;;;;;;;;;4995059;28;20524;-76
2022/12/15 08:45:00;;;;;;;7.05;1.50;;;;;;;;;;4995172;28;20109;-76
2022/12/15 08:47:26;;;;;;;10.18;1.55;;;;;;;;;;4995074;28;20069;-75
2022/12/15 08:49:53;;;;;;;8.55;1.30;;;;;;;;;;4994899;28;20038;-76
2022/12/15 08:52:19;;;;;;;5.40;1.20;;;;;;;;;;4995273;28;20033;-76
2022/12/15 08:54:45;;;;;;;5.05;1.48;;;;;;;;;;4994764;28;20022;-76
2022/12/15 08:57:11;;;;;;;6.82;1.52;;;;;;;;;;4994612;28;20560;-77
2022/12/15 08:59:37;;;;;;;5.63;1.65;;;;;;;;;;4994879;28;20032;-76
2022/12/15 09:02:03;;;;;;;6.85;1.80;;;;;;;;;;4994865;28;20026;-76
2022/12/15 09:04:29;;;;;;;5.65;1.95;;;;;;;;;;4994702;28;20069;-77
2022/12/15 09:06:55;;;;;;;6.15;1.70;;;;;;;;;;4994647;28;20129;-76
2022/12/15 09:09:22;;;;;;;6.00;1.58;;;;;;;;;;4994633;28;20532;-76
2022/12/15 09:11:49;;;;;;;9.43;3.60;;;;;;;;;;4994254;28;20050;-76
2022/12/15 09:14:15;;;;;;;7.85;1.40;;;;;;;;;;4994574;28;20116;-76
2022/12/15 09:16:41;;;;;;;4.45;1.23;;;;;;;;;;4994647;28;20026;-77
2022/12/15 09:19:09;;;;;;;3.53;1.48;;;;;;;;;;4994058;28;20034;-76
2022/12/15 09:21:35;;;;;;;8.05;1.85;;;;;;;;;;4992809;28;20030;-76
2022/12/15 09:24:02;;;;;;;7.13;1.80;;;;;;;;;;4993804;28;20025;-76
2022/12/15 09:26:29;;;;;;;7.78;1.45;;;;;;;;;;4994339;28;20023;-77
2022/12/15 09:28:55;;;;;;;11.98;1.30;;;;;;;;;;4994309;28;20030;-77
2022/12/15 09:31:22;;;;;;;7.50;1.40;;;;;;;;;;4994334;28;20041;-76
2022/12/15 09:33:50;;;;;;;5.57;1.00;;;;;;;;;;4994328;28;20061;-76
2022/12/15 09:36:16;;;;;;;3.42;1.02;;;;;;;;;;4994172;28;20033;-77
2022/12/15 09:38:42;;;;;;;6.90;1.15;;;;;;;;;;4994106;28;20026;-77
2022/12/15 09:41:14;;;;;;;7.43;1.30;;;;;;;;;;4994262;28;20054;-77
2022/12/15 09:43:50;;;;;;;4.18;1.40;;;;;;;;;;4994147;28;20033;-76
2022/12/15 09:46:29;;;;;;;6.20;1.25;;;;;;;;;;4993219;28;20042;-76
2022/12/15 09:48:56;;;;;;;4.07;1.00;;;;;;;;;;4994247;28;20077;-77
2022/12/15 09:51:28;;;;;;;5.72;1.33;;;;;;;;;;4994097;28;20110;-76
2022/12/15 09:53:54;;;;;;;4.75;1.38;;;;;;;;;;4994276;28;20046;-77
2022/12/15 09:56:22;;;;;;;5.35;1.50;;;;;;;;;;4992563;28;20437;-77
2022/12/15 09:58:51;;;;;;;4.15;1.30;;;;;;;;;;4991289;28;20019;-77
2022/12/15 10:01:23;;;;;;;9.07;2.10;;;;;;;;;;4976326;28;20030;-76
2022/12/15 10:04:07;;;;;;;4.07;2.00;;;;;;;;;;4988175;28;20062;-76
2022/12/15 10:06:36;;;;;;;3.53;1.17;;;;;;;;;;4989289;28;20058;-76
2022/12/15 10:09:09;;;;;;;8.80;1.70;;;;;;;;;;4989362;28;20098;-77
2022/12/15 10:11:38;;;;;;;6.43;1.40;;;;;;;;;;4976470;28;20022;-77
2022/12/15 10:14:11;;;;;;;7.22;1.45;;;;;;;;;;4994194;28;20100;-77
2022/12/15 10:16:40;;;;;;;3.97;0.95;;;;;;;;;;5000086;28;20057;-76
2022/12/15 10:19:15;;;;;;;6.63;1.00;;;;;;;;;;5013759;28;20026;-77
2022/12/15 10:21:41;;;;;;;6.38;1.10;;;;;;;;;;5013326;28;20033;-77
2022/12/15 10:24:11;;;;;;;5.57;1.83;;;;;;;;;;5015878;28;20028;-77
2022/12/15 10:26:40;;;;;;;4.63;1.08;;;;;;;;;;5017431;28;20355;-76
2022/12/15 10:29:13;;;;;;;4.00;1.23;;;;;;;;;;4999521;28;20056;-77
2022/12/15 10:31:49;;;;;;;7.47;1.80;;;;;;;;;;5017332;28;20026;-77
2022/12/15 10:34:26;;;;;;;6.93;2.30;;;;;;;;;;5017157;28;20516;-77
2022/12/15 10:36:53;;;;;;;6.10;1.95;;;;;;;;;;5016895;28;20412;-77
2022/12/15 10:39:20;;;;;;;6.15;2.33;;;;;;;;;;5016951;28;20018;-76
2022/12/15 10:41:46;;;;;;;7.78;1.85;;;;;;;;;;5016778;28;20026;-77
2022/12/15 10:44:34;;;;;;;10.95;2.20;;;;;;;;;;5016909;28;20030;-77
2022/12/15 10:47:08;;;;;;;5.80;1.20;;;;;;;;;;5016933;28;20119;-76
2022/12/15 10:49:34;;;;;;;4.30;1.30;;;;;;;;;;5017151;28;20025;-76
2022/12/15 10:52:01;;;;;;;12.25;1.45;;;;;;;;;;5016753;28;20079;-76
2022/12/15 10:54:31;;;;;;;6.22;1.30;;;;;;;;;;5002746;28;20342;-76
2022/12/15 10:56:58;;;;;;;7.22;1.40;;;;;;;;;;4996809;28;20058;-76
2022/12/15 10:59:24;;;;;;;5.20;1.55;;;;;;;;;;4997122;28;20026;-76
2022/12/15 11:01:50;;;;;;;4.90;1.25;;;;;;;;;;4982231;28;20029;-75
2022/12/15 11:04:42;;;;;;;5.95;1.20;;;;;;;;;;4977388;28;20034;-75
2022/12/15 11:07:13;;;;;;;7.28;1.17;;;;;;;;;;4973835;28;20115;-76
2022/12/15 11:09:39;;;;;;;;;;;;;;;;;;4982494;28;20128;-76
2022/12/15 11:15:01;;;;;;;5.55;1.17;;;;;;;;;;4996854;28;20488;-76
2022/12/15 11:17:36;;;;;;;4.13;1.33;;;;;;;;;;4996562;28;20409;-76
2022/12/15 11:20:10;;;;;;;7.82;1.23;;;;;;;;;;4996794;28;20038;-76
2022/12/15 11:22:35;;;;;;;4.55;1.00;;;;;;;;;;4991601;28;20041;-76
2022/12/15 11:25:13;;;;;;;5.22;1.35;;;;;;;;;;4996012;28;20450;-76
2022/12/15 11:27:42;;;;;;;7.93;1.90;;;;;;;;;;4984834;28;20027;-76
2022/12/15 11:30:35;;;;;;;3.67;0.85;;;;;;;;;;4984964;28;20485;-76
2022/12/15 11:33:02;;;;;;;13.50;1.30;;;;;;;;;;4988905;28;20041;-76
2022/12/15 11:35:46;;;;;;;4.85;1.00;;;;;;;;;;4995692;28;20553;-76
2022/12/15 11:38:12;;;;;;;1.98;0.93;;;;;;;;;;4996196;28;20054;-76
2022/12/15 11:40:42;;;;;;;7.72;1.10;;;;;;;;;;4996234;28;20103;-75
2022/12/15 11:43:14;;;;;;;6.38;1.10;;;;;;;;;;4996180;28;20023;-76
2022/12/15 11:45:43;;;;;;;6.10;1.60;;;;;;;;;;4996126;28;20030;-76
2022/12/15 11:48:16;;;;;;;3.75;1.50;;;;;;;;;;4996117;28;20034;-76
2022/12/15 11:50:48;;;;;;;9.20;1.67;;;;;;;;;;4995521;28;20085;-76
2022/12/15 11:53:20;;;;;;;5.20;1.95;;;;;;;;;;4977999;28;20054;-75
2022/12/15 11:56:05;;;;;;;11.40;2.00;;;;;;;;;;4978965;28;20039;-75
2022/12/15 11:58:39;;;;;;;12.02;1.88;;;;;;;;;;4976595;28;20117;-76
2022/12/15 12:01:13;;;;;;;7.10;1.67;;;;;;;;;;4976526;28;20031;-76
2022/12/15 12:04:00;;;;;;;6.38;1.50;;;;;;;;;;4976475;28;20361;-76
2022/12/15 12:06:34;;;;;;;6.40;1.48;;;;;;;;;;4976172;28;20030;-76
2022/12/15 12:09:12;;;;;;;9.65;3.25;;;;;;;;;;4976430;28;20059;-76
2022/12/15 12:11:44;;;;;;;9.55;1.50;;;;;;;;;;4976449;28;20027;-76
2022/12/15 12:14:28;;;;;;;8.55;1.65;;;;;;;;;;4976193;28;20382;-76
2022/12/15 12:17:05;;;;;;;4.85;1.05;;;;;;;;;;4975855;28;20034;-76
2022/12/15 12:19:53;;;;;;;6.10;1.40;;;;;;;;;;4976208;28;20057;-76
2022/12/15 12:22:30;;;;;;;10.25;1.42;;;;;;;;;;4975955;28;20092;-76
2022/12/15 12:25:00;;;;;;;8.73;1.25;;;;;;;;;;4976083;28;20042;-76
2022/12/15 12:27:26;;;;;;;4.82;1.00;;;;;;;;;;4975851;28;20030;-76
2022/12/15 12:29:55;;;;;;;6.13;0.98;;;;;;;;;;4975908;28;20450;-76
2022/12/15 12:32:33;;;;;;;5.85;1.92;;;;;;;;;;4975811;28;20469;-77
2022/12/15 12:34:59;;;;;;;8.70;1.08;;;;;;;;;;4975904;28;20080;-76
2022/12/15 12:37:36;;;;;;;4.82;1.02;;;;;;;;;;4975877;28;20038;-77
2022/12/15 12:40:14;;;;;;;7.53;1.40;;;;;;;;;;4975550;28;20375;-77
2022/12/15 12:42:42;;;;;;;4.35;1.40;;;;;;;;;;4975932;28;20038;-76
2022/12/15 12:45:13;;;;;;;4.70;1.40;;;;;;;;;;4975324;28;20022;-76
2022/12/15 12:47:39;;;;;;;;;;;;;;;;;;4975258;28;20077;-76
2022/12/15 12:50:12;;;;;;;7.15;1.65;;;;;;;;;;4975366;28;19966;-76
2022/12/15 12:52:38;;;;;;;4.72;1.20;;;;;;;;;;4975452;28;20058;-76
2022/12/15 12:55:13;;;;;;;7.50;1.30;;;;;;;;;;4975411;28;20072;-77
2022/12/15 12:57:43;;;;;;;7.10;1.38;;;;;;;;;;4974483;28;20070;-77
2022/12/15 13:00:27;;;;;;;8.45;1.80;;;;;;;;;;4975321;28;20031;-77
2022/12/15 13:03:12;;;;;;;15.57;5.25;;;;;;;;;;4975357;28;20030;-77
2022/12/15 13:05:38;;;;;;;4.47;1.35;;;;;;;;;;4987547;28;20026;-76
2022/12/15 13:08:04;;;;;;;4.80;1.00;;;;;;;;;;5012875;28;20080;-76
2022/12/15 13:10:31;;;;;;;6.28;1.90;;;;;;;;;;5008631;28;20076;-76
2022/12/15 13:12:58;;;;;;;10.75;1.67;;;;;;;;;;5014374;28;20384;-76
2022/12/15 13:15:30;;;;;;;4.18;1.05;;;;;;;;;;5014215;28;20024;-76
2022/12/15 13:17:56;;;;;;;4.05;0.95;;;;;;;;;;4996408;28;20112;-76
2022/12/15 13:20:23;;;;;;;1.15;0.73;;;;;;;;;;5014136;28;20176;-76
2022/12/15 13:22:49;;;;;;;4.82;0.85;;;;;;;;;;5006933;28;20029;-76
2022/12/15 13:25:27;;;;;;;5.25;0.90;;;;;;;;;;4994224;28;20105;-76
2022/12/15 13:27:54;;;;;;;6.63;1.00;;;;;;;;;;4994312;28;20022;-76
2022/12/15 13:30:21;;;;;;;10.68;1.15;;;;;;;;;;4994137;28;20022;-76
2022/12/15 13:32:50;;;;;;;4.97;1.23;;;;;;;;;;4994102;28;20062;-76
2022/12/15 13:35:22;;;;;;;5.85;1.33;;;;;;;;;;4994082;28;20077;-76
2022/12/15 13:37:49;;;;;;;5.68;0.98;;;;;;;;;;4984516;28;20035;-76
2022/12/15 13:40:24;;;;;;;5.07;2.60;;;;;;;;;;4974992;28;20026;-76
2022/12/15 13:42:57;;;;;;;5.45;1.00;;;;;;;;;;4974762;28;20027;-76
2022/12/15 13:45:42;;;;;;;4.78;1.10;;;;;;;;;;4974707;28;20054;-76
2022/12/15 13:48:23;;;;;;;3.72;0.70;;;;;;;;;;4977058;28;20031;-76
2022/12/15 13:50:55;;;;;;;5.30;0.63;;;;;;;;;;4982076;28;20026;-76
2022/12/15 13:53:22;;;;;;;4.95;0.60;;;;;;;;;;4974702;28;20031;-76
2022/12/15 13:56:05;;;;;;;2.30;0.40;;;;;;;;;;4974701;28;20023;-76
2022/12/15 13:58:38;;;;;;;2.20;0.57;;;;;;;;;;4977859;28;20409;-76
2022/12/15 14:01:17;;;;;;;4.93;1.52;;;;;;;;;;4978970;28;20105;-77
2022/12/15 14:03:56;;;;;;;5.18;0.73;;;;;;;;;;4979246;28;20030;-77
2022/12/15 14:06:22;;;;;;;5.60;1.02;;;;;;;;;;4979352;28;20039;-77
2022/12/15 14:08:48;;;;;;;6.75;1.55;;;;;;;;;;4978670;28;20488;-76
2022/12/15 14:11:20;;;;;;;1.67;0.80;;;;;;;;;;4978777;28;20454;-77
2022/12/15 14:13:46;;;;;;;2.80;0.70;;;;;;;;;;4978466;28;20039;-76
2022/12/15 14:16:17;;;;;;;7.45;0.80;;;;;;;;;;4978193;28;20031;-77
2022/12/15 14:18:44;;;;;;;4.55;0.60;;;;;;;;;;4978340;28;20042;-77
2022/12/15 14:21:25;;;;;;;4.63;1.20;;;;;;;;;;4978225;28;20022;-77
2022/12/15 14:23:52;;;;;;;5.82;2.47;;;;;;;;;;4978633;28;20054;-76
2022/12/15 14:26:18;;;;;;;4.60;1.77;;;;;;;;;;4988393;28;20525;-77
2022/12/15 14:28:44;;;;;;;2.08;1.02;;;;;;;;;;4997612;28;20101;-77
2022/12/15 14:31:10;;;;;;;5.25;1.10;;;;;;;;;;4997494;28;20054;-77
2022/12/15 14:33:37;;;;;;;4.15;1.23;;;;;;;;;;4997660;28;20069;-78
2022/12/15 14:36:08;;;;;;;2.83;2.13;;;;;;;;;;5002135;28;20425;-77
2022/12/15 14:38:43;;;;;;;3.28;1.65;;;;;;;;;;5016993;28;20029;-78
2022/12/15 14:41:12;;;;;;;4.93;2.17;;;;;;;;;;5016716;28;20034;-78
2022/12/15 14:43:38;;;;;;;9.35;3.90;;;;;;;;;;5016992;28;20030;-77
2022/12/15 14:46:07;;;;;;;5.53;2.75;;;;;;;;;;5016813;28;20029;-77
2022/12/15 14:48:36;;;;;;;3.80;0.70;;;;;;;;;;5017311;28;20022;-77
2022/12/15 14:51:02;;;;;;;2.65;0.60;;;;;;;;;;4999033;28;20523;-77
2022/12/15 14:53:34;;;;;;;4.00;0.77;;;;;;;;;;5016611;28;20044;-77
2022/12/15 14:56:18;;;;;;;1.13;0.60;;;;;;;;;;5016056;28;20032;-78
2022/12/15 14:58:54;;;;;;;4.47;0.90;;;;;;;;;;5001500;28;20057;-77
2022/12/15 15:01:24;;;;;;;3.15;0.68;;;;;;;;;;4996896;28;20034;-77
2022/12/15 15:03:57;;;;;;;0.77;0.40;;;;;;;;;;4996994;28;20027;-77
2022/12/15 15:06:27;;;;;;;2.35;0.63;;;;;;;;;;4996623;28;20030;-77
2022/12/15 15:08:53;;;;;;;2.58;0.60;;;;;;;;;;4996393;28;20045;-77
2022/12/15 15:11:28;;;;;;;4.75;0.50;;;;;;;;;;4996791;28;20450;-77
2022/12/15 15:14:05;;;;;;;2.35;0.60;;;;;;;;;;4996514;28;20421;-77
2022/12/15 15:16:31;;;;;;;2.38;0.73;;;;;;;;;;4996463;28;20037;-77
2022/12/15 15:19:00;;;;;;;4.55;0.60;;;;;;;;;;4996475;28;20039;-78
2022/12/15 15:21:27;;;;;;;2.72;0.60;;;;;;;;;;4996503;28;20034;-77
2022/12/15 15:24:11;;;;;;;0.98;0.30;;;;;;;;;;4996619;28;20034;-77
2022/12/15 15:26:38;;;;;;;1.20;0.50;;;;;;;;;;4996489;28;20053;-77
2022/12/15 15:29:24;;;;;;;3.97;0.80;;;;;;;;;;4996885;28;20022;-78
2022/12/15 15:31:52;;;;;;;3.22;0.80;;;;;;;;;;4995899;28;20030;-78
2022/12/15 15:34:18;;;;;;;4.03;1.30;;;;;;;;;;4977493;28;20113;-79
2022/12/15 15:36:44;;;;;;;6.88;1.45;;;;;;;;;;4978164;28;20113;-78
2022/12/15 15:39:12;;;;;;;1.85;0.90;;;;;;;;;;4979105;28;20031;-79
2022/12/15 15:41:38;;;;;;;1.33;0.70;;;;;;;;;;4977583;28;20022;-77
2022/12/15 15:44:11;;;;;;;2.78;0.65;;;;;;;;;;4977140;28;20114;-77
2022/12/15 15:46:39;;;;;;;1.58;0.47;;;;;;;;;;4976792;28;20022;-77
2022/12/15 15:49:07;;;;;;;3.58;0.90;;;;;;;;;;4976675;28;20026;-77
2022/12/15 15:51:33;;;;;;;1.67;0.80;;;;;;;;;;4976430;28;20030;-77
2022/12/15 15:54:00;;;;;;;2.63;0.95;;;;;;;;;;4976634;28;20031;-77
2022/12/15 15:56:26;;;;;;;4.95;1.10;;;;;;;;;;4975903;28;20433;-77
2022/12/15 15:58:53;;;;;;;4.60;1.05;;;;;;;;;;4977438;28;20035;-75
2022/12/15 16:01:19;;;;;;;2.75;1.00;;;;;;;;;;4976933;28;20038;-75
2022/12/15 16:03:45;;;;;;;2.22;1.10;;;;;;;;;;4976365;28;20026;-77
2022/12/15 16:06:15;;;;;;;3.55;1.60;;;;;;;;;;4976221;28;20089;-77
2022/12/15 16:08:42;;;;;;;5.85;1.60;;;;;;;;;;4976289;28;20049;-76
2022/12/15 16:11:10;;;;;;;2.75;1.08;;;;;;;;;;4976580;28;20090;-77
2022/12/15 16:13:36;;;;;;;3.85;1.35;;;;;;;;;;4976711;28;20023;-77
2022/12/15 16:16:03;;;;;;;2.70;1.00;;;;;;;;;;4976114;28;20027;-77
2022/12/15 16:18:29;;;;;;;3.95;1.50;;;;;;;;;;4976084;28;20027;-76
2022/12/15 16:20:55;;;;;;;3.42;1.10;;;;;;;;;;4975955;28;20045;-77
2022/12/15 16:23:23;;;;;;;2.60;1.15;;;;;;;;;;4976189;28;20541;-77
2022/12/15 16:25:51;;;;;;;5.43;1.25;;;;;;;;;;4976161;28;20023;-76
2022/12/15 16:28:25;;;;;;;3.70;1.42;;;;;;;;;;4976069;28;20077;-76
2022/12/15 16:30:51;;;;;;;8.18;4.28;;;;;;;;;;4975747;28;20054;-76
2022/12/15 16:33:17;;;;;;;6.78;2.08;;;;;;;;;;4975845;28;20061;-77
2022/12/15 16:35:44;;;;;;;3.50;2.10;;;;;;;;;;4990678;28;20014;-76
2022/12/15 16:38:15;;;;;;;7.43;2.53;;;;;;;;;;5014592;28;20037;-76
2022/12/15 16:40:41;;;;;;;5.35;1.85;;;;;;;;;;5008531;28;20030;-77
2022/12/15 16:43:13;;;;;;;5.32;2.53;;;;;;;;;;4995048;28;20105;-77
2022/12/15 16:45:41;;;;;;;7.03;2.20;;;;;;;;;;4995387;28;20022;-77
2022/12/15 16:48:07;;;;;;;7.00;2.95;;;;;;;;;;4995075;28;20027;-76
2022/12/15 16:50:36;;;;;;;9.02;3.72;;;;;;;;;;4995022;28;20520;-77
2022/12/15 16:53:03;;;;;;;8.82;4.07;;;;;;;;;;4995083;28;20018;-76
2022/12/15 16:55:30;;;;;;;10.50;4.18;;;;;;;;;;4994837;28;20023;-77
2022/12/15 16:58:03;;;;;;;8.50;4.90;;;;;;;;;;4994498;28;20054;-77
2022/12/15 17:00:34;;;;;;;7.47;3.78;;;;;;;;;;4994831;28;20026;-76
2022/12/15 17:03:01;;;;;;;5.72;2.78;;;;;;;;;;4994641;28;20439;-76
2022/12/15 17:05:36;;;;;;;4.90;1.90;;;;;;;;;;4994887;28;20030;-77
2022/12/15 17:08:03;;;;;;;4.55;2.17;;;;;;;;;;4995027;28;20027;-77
2022/12/15 17:10:30;;;;;;;4.22;2.50;;;;;;;;;;4994866;28;20026;-77
2022/12/15 17:13:04;;;;;;;3.90;2.10;;;;;;;;;;4994593;28;20362;-76
2022/12/15 17:15:30;;;;;;;4.10;2.10;;;;;;;;;;4994902;28;20484;-76